Time;durP1;ratioP1;P1;durP2;ratioP2;P2;SDS_P1;SDS_P2;PMS_P1;PMS_P2;Temp;Humidity;BMP_temperature;BMP_pressure;BME280_temperature;BME280_humidity;BME280_pressure;Samples;Min_cycle;Max_cycle;Signal;HPM_P1;HPM_P2
2021/01/22 00:01:46;;;;;;;9.75;6.70;;;6.70;96.90;;;;;;5093190;28;20207;-49
2021/01/22 00:04:14;;;;;;;5.80;5.15;;;6.80;96.80;;;;;;5093221;28;20290;-47
2021/01/22 00:06:43;;;;;;;5.85;5.25;;;6.80;96.70;;;;;;5093441;28;20245;-46
2021/01/22 00:09:10;;;;;;;5.45;4.95;;;6.80;96.70;;;;;;5093417;28;20580;-46
2021/01/22 00:11:37;;;;;;;5.43;4.82;;;6.80;96.60;;;;;;5093308;28;20239;-45
2021/01/22 00:14:04;;;;;;;6.97;4.78;;;6.80;96.50;;;;;;5093010;28;20278;-46
2021/01/22 00:16:31;;;;;;;7.35;6.40;;;6.90;96.50;;;;;;5093475;28;20203;-46
2021/01/22 00:18:59;;;;;;;7.60;6.25;;;6.90;96.50;;;;;;5092942;28;20203;-45
2021/01/22 00:21:29;;;;;;;7.65;6.95;;;7.00;96.40;;;;;;5092956;28;20260;-46
2021/01/22 00:23:56;;;;;;;8.80;6.50;;;7.10;96.40;;;;;;5092952;28;20655;-45
2021/01/22 00:26:24;;;;;;;6.82;6.22;;;7.10;96.60;;;;;;5092929;28;20245;-47
2021/01/22 00:28:51;;;;;;;8.18;6.85;;;7.20;96.10;;;;;;5092934;28;20209;-44
2021/01/22 00:31:18;;;;;;;8.40;7.57;;;7.40;96.00;;;;;;5092736;28;20242;-44
2021/01/22 00:33:45;;;;;;;8.65;7.72;;;7.50;95.90;;;;;;5092644;28;20656;-43
2021/01/22 00:36:12;;;;;;;8.18;7.18;;;7.40;95.80;;;;;;5092527;28;20260;-49
2021/01/22 00:38:40;;;;;;;8.48;7.53;;;7.40;95.80;;;;;;5092696;28;20256;-46
2021/01/22 00:41:07;;;;;;;7.75;7.05;;;7.50;95.80;;;;;;5092880;28;20309;-46
2021/01/22 00:43:34;;;;;;;7.82;7.03;;;7.40;95.80;;;;;;5092507;28;20334;-46
2021/01/22 00:46:02;;;;;;;9.77;7.15;;;7.40;95.90;;;;;;5092503;28;20293;-45
2021/01/22 00:48:36;;;;;;;7.03;6.32;;;7.40;95.90;;;;;;5092760;28;20314;-44
2021/01/22 00:51:03;;;;;;;8.02;6.68;;;7.30;95.90;;;;;;5092556;28;20211;-44
2021/01/22 00:53:31;;;;;;;7.53;6.82;;;7.30;96.00;;;;;;5092422;28;20218;-44
2021/01/22 00:55:58;;;;;;;7.65;6.80;;;7.40;96.00;;;;;;5092623;28;20301;-44
2021/01/22 00:58:25;;;;;;;7.70;6.90;;;7.40;96.00;;;;;;5092253;28;20557;-46
2021/01/22 01:00:52;;;;;;;8.07;6.35;;;7.40;96.00;;;;;;5092073;28;20293;-43
2021/01/22 01:03:19;;;;;;;8.05;6.85;;;7.30;96.00;;;;;;5092155;28;20203;-43
2021/01/22 01:05:47;;;;;;;7.43;6.53;;;7.30;96.10;;;;;;5091782;28;20672;-46
2021/01/22 01:08:14;;;;;;;7.60;6.72;;;7.30;96.10;;;;;;5092120;28;20236;-45
2021/01/22 01:10:41;;;;;;;8.05;7.25;;;7.30;96.10;;;;;;5092466;28;20206;-46
2021/01/22 01:13:09;;;;;;;10.02;7.57;;;7.20;96.10;;;;;;5091549;28;20270;-47
2021/01/22 01:15:36;;;;;;;8.10;7.18;;;7.20;96.10;;;;;;5092296;28;20203;-48
2021/01/22 01:18:03;;;;;;;8.98;8.07;;;7.20;96.20;;;;;;5092202;28;20293;-44
2021/01/22 01:20:31;;;;;;;8.63;7.43;;;7.20;96.10;;;;;;5092108;28;20310;-46
2021/01/22 01:22:58;;;;;;;8.95;8.05;;;7.10;96.20;;;;;;5092004;28;20219;-49
2021/01/22 01:25:25;;;;;;;9.52;8.43;;;7.10;96.30;;;;;;5091967;28;20298;-46
2021/01/22 01:27:52;;;;;;;9.10;8.15;;;7.00;96.30;;;;;;5092591;28;20234;-45
2021/01/22 01:30:21;;;;;;;8.77;7.88;;;7.00;96.40;;;;;;5091974;28;20577;-45
2021/01/22 01:32:48;;;;;;;10.70;9.20;;;7.00;96.30;;;;;;5091960;28;20297;-45
2021/01/22 01:35:15;;;;;;;9.70;8.60;;;7.00;96.40;;;;;;5091985;28;20568;-46
2021/01/22 01:37:42;;;;;;;7.95;7.15;;;6.90;96.50;;;;;;5091894;28;20233;-44
2021/01/22 01:40:09;;;;;;;20.58;18.58;;;6.80;96.60;;;;;;5091725;28;20236;-44
2021/01/22 01:42:36;;;;;;;8.80;7.93;;;6.70;96.80;;;;;;5091898;28;20246;-45
2021/01/22 01:45:04;;;;;;;9.75;8.60;;;6.70;96.90;;;;;;5092167;28;20309;-46
2021/01/22 01:47:32;;;;;;;10.23;9.23;;;6.60;97.00;;;;;;5091879;28;20317;-45
2021/01/22 01:49:59;;;;;;;10.52;9.18;;;6.60;97.10;;;;;;5091809;28;20220;-48
2021/01/22 01:52:28;;;;;;;10.32;9.15;;;6.60;97.20;;;;;;5091937;28;20234;-49
2021/01/22 01:54:55;;;;;;;11.68;8.48;;;6.60;97.20;;;;;;5091494;28;20226;-48
2021/01/22 01:57:22;;;;;;;8.63;7.82;;;6.70;97.20;;;;;;5091899;28;20230;-45
2021/01/22 01:59:49;;;;;;;9.73;8.73;;;6.70;97.20;;;;;;5091945;28;20245;-46
2021/01/22 02:02:17;;;;;;;8.10;7.15;;;6.80;97.10;;;;;;5091636;28;20213;-47
2021/01/22 02:04:45;;;;;;;9.63;8.02;;;6.80;97.10;;;;;;5091794;28;20207;-51
2021/01/22 02:07:12;;;;;;;10.50;8.07;;;6.90;97.00;;;;;;5091533;28;20707;-47
2021/01/22 02:09:40;;;;;;;9.05;8.07;;;6.80;97.00;;;;;;5091750;28;20264;-46
2021/01/22 02:12:07;;;;;;;8.05;7.25;;;6.80;97.30;;;;;;5091625;28;20618;-47
2021/01/22 02:14:36;;;;;;;8.68;7.55;;;6.70;97.20;;;;;;5091213;28;20333;-44
2021/01/22 02:17:04;;;;;;;8.73;7.32;;;6.70;97.30;;;;;;5095148;28;20206;-41
2021/01/22 02:19:50;;;;;;;9.60;7.90;;;6.70;97.30;;;;;;5095438;28;20213;-46
2021/01/22 02:22:18;;;;;;;8.43;7.63;;;6.70;97.40;;;;;;5095598;28;20217;-48
2021/01/22 02:24:47;;;;;;;8.88;7.03;;;6.60;97.70;;;;;;5095597;28;20256;-47
2021/01/22 02:27:16;;;;;;;8.35;6.75;;;6.60;97.50;;;;;;5095233;28;20236;-48
2021/01/22 02:29:44;;;;;;;8.00;7.20;;;6.50;97.70;;;;;;5095205;28;20694;-49
2021/01/22 02:32:12;;;;;;;8.25;7.53;;;6.50;97.80;;;;;;5095176;28;20289;-46
2021/01/22 02:34:43;;;;;;;9.15;7.28;;;6.40;97.90;;;;;;5095383;28;20230;-47
2021/01/22 02:37:13;;;;;;;8.40;6.88;;;6.40;98.00;;;;;;5095076;28;20297;-44
2021/01/22 02:39:43;;;;;;;7.30;6.15;;;6.30;98.10;;;;;;5095214;28;20234;-43
2021/01/22 02:42:10;;;;;;;8.13;7.32;;;6.30;98.20;;;;;;5095093;28;20234;-46
2021/01/22 02:44:39;;;;;;;8.32;7.50;;;6.30;98.30;;;;;;5095091;28;20562;-45
2021/01/22 02:47:08;;;;;;;6.85;6.15;;;6.30;98.40;;;;;;5095220;28;20279;-47
2021/01/22 02:49:35;;;;;;;6.53;5.68;;;6.30;98.40;;;;;;5094890;28;20213;-49
2021/01/22 02:52:02;;;;;;;6.65;6.05;;;6.20;98.50;;;;;;5094901;28;20209;-49
2021/01/22 02:54:29;;;;;;;8.07;6.45;;;6.20;98.60;;;;;;5094871;28;20658;-45
2021/01/22 02:57:05;;;;;;;5.60;5.10;;;6.10;98.70;;;;;;5094693;28;20267;-46
2021/01/22 02:59:45;;;;;;;5.25;4.75;;;6.20;98.70;;;;;;5094754;28;20818;-47
2021/01/22 03:02:19;;;;;;;5.57;5.00;;;6.30;98.70;;;;;;5094766;28;20238;-44
2021/01/22 03:04:48;;;;;;;5.43;4.90;;;6.30;98.70;;;;;;5094792;28;20203;-45
2021/01/22 03:07:22;;;;;;;5.43;4.93;;;6.30;98.70;;;;;;5095229;28;20219;-46
2021/01/22 03:09:52;;;;;;;5.18;4.68;;;6.30;98.70;;;;;;5094445;28;20610;-45
2021/01/22 03:12:21;;;;;;;5.50;4.70;;;6.40;98.70;;;;;;5094498;28;20297;-45
2021/01/22 03:14:50;;;;;;;4.75;4.35;;;6.50;98.60;;;;;;5094440;28;20230;-46
2021/01/22 03:17:17;;;;;;;4.53;4.10;;;6.50;98.50;;;;;;5094402;28;20309;-46
2021/01/22 03:19:48;;;;;;;5.10;3.80;;;6.50;98.50;;;;;;5094336;28;20207;-44
2021/01/22 03:22:15;;;;;;;4.40;4.00;;;6.60;98.50;;;;;;5094161;28;20767;-46
2021/01/22 03:24:43;;;;;;;4.68;3.78;;;6.60;98.50;;;;;;5094121;28;20241;-46
2021/01/22 03:27:10;;;;;;;6.70;5.43;;;6.60;98.60;;;;;;5093826;28;20297;-46
2021/01/22 03:29:38;;;;;;;3.95;3.55;;;6.50;98.70;;;;;;5094124;28;20253;-45
2021/01/22 03:32:07;;;;;;;4.13;2.95;;;6.50;98.80;;;;;;5093957;28;20242;-44
2021/01/22 03:34:34;;;;;;;5.05;2.70;;;6.50;99.00;;;;;;5093752;28;20738;-46
2021/01/22 03:37:02;;;;;;;2.38;2.17;;;6.40;99.10;;;;;;5093761;28;20301;-46
2021/01/22 03:39:33;;;;;;;3.65;2.22;;;6.40;99.20;;;;;;5094027;28;20206;-44
2021/01/22 03:42:03;;;;;;;3.78;3.38;;;6.50;99.40;;;;;;5093899;28;20211;-45
2021/01/22 03:44:30;;;;;;;2.20;1.73;;;6.60;99.40;;;;;;5093601;28;20658;-44
2021/01/22 03:46:57;;;;;;;3.22;2.05;;;6.60;99.50;;;;;;5093607;28;20661;-45
2021/01/22 03:49:25;;;;;;;1.75;1.45;;;6.70;99.50;;;;;;5093586;28;20213;-45
2021/01/22 03:51:52;;;;;;;4.85;2.83;;;6.80;99.70;;;;;;5093487;28;20657;-45
2021/01/22 03:54:19;;;;;;;2.03;1.50;;;7.00;99.70;;;;;;5093628;28;20230;-44
2021/01/22 03:56:46;;;;;;;2.28;1.42;;;7.10;99.80;;;;;;5093478;28;20218;-46
2021/01/22 03:59:13;;;;;;;1.80;1.30;;;7.30;99.50;;;;;;5093473;28;20206;-44
2021/01/22 04:01:40;;;;;;;1.90;1.30;;;7.30;99.40;;;;;;5093310;28;20354;-49
2021/01/22 04:04:07;;;;;;;3.10;1.60;;;7.40;99.30;;;;;;5093302;28;20221;-52
2021/01/22 04:06:36;;;;;;;1.95;0.88;;;7.40;99.30;;;;;;5093545;28;20298;-45
2021/01/22 04:09:04;;;;;;;3.85;1.80;;;7.50;99.30;;;;;;5093366;28;20569;-46
2021/01/22 04:11:31;;;;;;;1.27;0.90;;;7.60;99.10;;;;;;5093216;28;20209;-46
2021/01/22 04:13:58;;;;;;;11.10;5.97;;;7.70;99.10;;;;;;5093032;28;20325;-48
2021/01/22 04:16:25;;;;;;;4.55;1.60;;;7.70;98.90;;;;;;5092975;28;20295;-44
2021/01/22 04:18:52;;;;;;;5.47;3.47;;;7.80;98.90;;;;;;5093216;28;20207;-44
2021/01/22 04:21:20;;;;;;;6.68;4.07;;;7.90;98.80;;;;;;5093060;28;20211;-45
2021/01/22 04:23:47;;;;;;;5.28;2.05;;;7.90;98.70;;;;;;5092945;28;20206;-44
2021/01/22 04:26:14;;;;;;;7.65;3.60;;;8.00;98.60;;;;;;5092808;28;20661;-44
2021/01/22 04:28:41;;;;;;;5.32;3.72;;;8.00;98.50;;;;;;5092859;28;20750;-45
2021/01/22 04:31:08;;;;;;;4.60;3.17;;;8.00;98.40;;;;;;5092733;28;20290;-45
2021/01/22 04:33:35;;;;;;;5.32;2.78;;;8.00;98.40;;;;;;5092824;28;20266;-46
2021/01/22 04:36:03;;;;;;;9.27;4.50;;;8.00;98.40;;;;;;5092785;28;20668;-45
2021/01/22 04:38:30;;;;;;;5.53;3.05;;;8.00;98.40;;;;;;5092274;28;20621;-43
2021/01/22 04:41:00;;;;;;;7.07;3.25;;;7.90;98.50;;;;;;5092437;28;20606;-46
2021/01/22 04:43:28;;;;;;;6.50;3.60;;;7.90;98.60;;;;;;5092633;28;20213;-44
2021/01/22 04:45:55;;;;;;;4.78;2.67;;;7.90;98.60;;;;;;5092700;28;20579;-43
2021/01/22 04:48:22;;;;;;;10.15;4.75;;;7.80;98.60;;;;;;5092402;28;20600;-44
2021/01/22 04:50:51;;;;;;;5.63;3.22;;;7.80;98.70;;;;;;5092602;28;20233;-43
2021/01/22 04:53:23;;;;;;;5.00;1.90;;;7.80;98.70;;;;;;5092320;28;20583;-44
2021/01/22 04:55:50;;;;;;;5.88;2.88;;;7.80;98.80;;;;;;5092106;28;20207;-43
2021/01/22 04:58:19;;;;;;;7.03;4.40;;;7.70;98.90;;;;;;5092231;28;20622;-44
2021/01/22 05:00:46;;;;;;;4.68;2.70;;;7.70;98.90;;;;;;5092643;28;20245;-44
2021/01/22 05:03:13;;;;;;;4.90;3.05;;;7.60;99.00;;;;;;5092295;28;20257;-45
2021/01/22 05:05:41;;;;;;;8.60;3.83;;;7.60;99.10;;;;;;5092220;28;20257;-45
2021/01/22 05:08:08;;;;;;;4.93;3.03;;;7.60;99.10;;;;;;5092157;28;20206;-43
2021/01/22 05:10:35;;;;;;;6.40;3.75;;;7.60;99.10;;;;;;5091961;28;20635;-42
2021/01/22 05:13:02;;;;;;;4.78;2.65;;;7.60;99.20;;;;;;5091975;28;20234;-45
2021/01/22 05:15:30;;;;;;;5.55;3.72;;;7.60;99.20;;;;;;5092158;28;20309;-43
2021/01/22 05:18:00;;;;;;;4.88;2.85;;;7.50;99.20;;;;;;5092075;28;20230;-48
2021/01/22 05:20:33;;;;;;;4.22;3.00;;;7.50;99.40;;;;;;5091868;28;20241;-45
2021/01/22 05:23:02;;;;;;;7.85;4.68;;;7.40;99.50;;;;;;5092194;28;20657;-47
2021/01/22 05:25:30;;;;;;;3.72;2.20;;;7.30;99.60;;;;;;5092057;28;20206;-46
2021/01/22 05:27:58;;;;;;;5.30;3.50;;;7.30;99.80;;;;;;5091911;28;20206;-45
2021/01/22 05:30:26;;;;;;;17.70;9.15;;;7.20;99.90;;;;;;5092236;28;20215;-46
2021/01/22 05:33:15;;;;;;;7.43;4.35;;;7.10;99.90;;;;;;5092013;28;20246;-47
2021/01/22 05:35:42;;;;;;;3.95;1.92;;;7.10;99.90;;;;;;5091910;28;20276;-45
2021/01/22 05:38:10;;;;;;;4.07;2.33;;;7.00;99.90;;;;;;5092256;28;20230;-48
2021/01/22 05:40:36;;;;;;;6.90;3.80;;;6.90;99.90;;;;;;5091959;28;20744;-45
2021/01/22 05:43:04;;;;;;;5.45;2.47;;;6.90;99.90;;;;;;5092000;28;20207;-43
2021/01/22 05:45:38;;;;;;;4.50;2.30;;;6.80;99.90;;;;;;5091933;28;20241;-43
2021/01/22 05:48:17;;;;;;;2.00;1.75;;;6.80;99.90;;;;;;5091907;28;20210;-42
2021/01/22 05:50:46;;;;;;;4.30;2.38;;;6.80;99.90;;;;;;5093692;28;20220;-42
2021/01/22 05:53:13;;;;;;;17.42;8.80;;;6.80;99.90;;;;;;5096065;28;20207;-41
2021/01/22 05:55:40;;;;;;;2.92;1.83;;;6.70;99.90;;;;;;5096132;28;20206;-42
2021/01/22 05:58:08;;;;;;;2.97;2.00;;;6.70;99.90;;;;;;5095892;28;20234;-44
2021/01/22 06:00:35;;;;;;;5.40;3.42;;;6.70;99.90;;;;;;5095627;28;20625;-43
2021/01/22 06:03:22;;;;;;;4.88;3.15;;;6.80;99.90;;;;;;5095810;28;20213;-48
2021/01/22 06:05:53;;;;;;;3.05;2.15;;;6.90;99.90;;;;;;5095372;28;20297;-47
2021/01/22 06:08:20;;;;;;;4.53;3.17;;;6.90;99.90;;;;;;5095650;28;20412;-49
2021/01/22 06:10:50;;;;;;;4.43;1.90;;;7.00;99.90;;;;;;5095582;28;20704;-48
2021/01/22 06:13:25;;;;;;;11.70;7.45;;;7.10;99.90;;;;;;5095074;28;20291;-51
2021/01/22 06:15:55;;;;;;;12.20;8.13;;;7.10;99.90;;;;;;5095743;28;20292;-48
2021/01/22 06:18:29;;;;;;;12.45;5.97;;;7.20;99.90;;;;;;5095576;28;20681;-46
2021/01/22 06:21:10;;;;;;;5.68;4.25;;;7.20;99.90;;;;;;5095484;28;20334;-49
2021/01/22 06:23:40;;;;;;;13.27;8.77;;;7.30;99.90;;;;;;5095502;28;20225;-48
2021/01/22 06:26:08;;;;;;;11.20;6.45;;;7.30;99.90;;;;;;5095470;28;20211;-49
2021/01/22 06:28:36;;;;;;;11.52;7.13;;;7.30;99.90;;;;;;5095517;28;20260;-47
2021/01/22 06:31:06;;;;;;;8.10;5.57;;;7.30;99.90;;;;;;5095595;28;20656;-44
2021/01/22 06:33:35;;;;;;;6.15;3.65;;;7.40;99.90;;;;;;5095087;28;20291;-44
2021/01/22 06:36:03;;;;;;;3.72;2.97;;;7.50;99.80;;;;;;5094838;28;20302;-47
2021/01/22 06:38:31;;;;;;;3.33;2.95;;;7.50;99.70;;;;;;5094807;28;20661;-45
2021/01/22 06:40:58;;;;;;;2.63;2.13;;;7.50;99.60;;;;;;5094741;28;20239;-47
2021/01/22 06:43:26;;;;;;;7.20;4.60;;;7.50;99.50;;;;;;5094893;28;20213;-46
2021/01/22 06:46:00;;;;;;;4.18;2.70;;;7.60;99.40;;;;;;5094588;28;20741;-45
2021/01/22 06:48:27;;;;;;;1.85;1.48;;;7.60;99.30;;;;;;5094561;28;20292;-44
2021/01/22 06:51:14;;;;;;;5.60;1.80;;;7.70;99.20;;;;;;5095084;28;20235;-45
2021/01/22 06:54:09;;;;;;;1.98;1.75;;;7.70;99.10;;;;;;5094641;28;20302;-46
2021/01/22 06:56:38;;;;;;;3.63;1.33;;;7.70;99.00;;;;;;5094590;28;20215;-47
2021/01/22 06:59:37;;;;;;;2.10;1.88;;;7.70;99.00;;;;;;5094432;28;20210;-49
2021/01/22 07:02:38;;;;;;;2.15;1.73;;;7.70;98.80;;;;;;5070650;28;20207;-47
2021/01/22 07:05:42;;;;;;;1.80;1.58;;;7.80;98.70;;;;;;5094157;28;20210;-45
2021/01/22 07:08:13;;;;;;;26.70;17.42;;;7.80;98.40;;;;;;5094688;28;20210;-48
2021/01/22 07:11:03;;;;;;;63.78;43.05;;;7.90;98.40;;;;;;5094446;28;20207;-46
2021/01/22 07:13:39;;;;;;;35.70;23.25;;;7.90;98.20;;;;;;5093972;28;20234;-48
2021/01/22 07:16:08;;;;;;;64.70;46.67;;;7.90;98.10;;;;;;5094071;28;20212;-51
2021/01/22 07:18:43;;;;;;;24.00;17.40;;;8.00;98.10;;;;;;5094029;28;20210;-47
2021/01/22 07:21:29;;;;;;;6.78;5.72;;;7.90;98.00;;;;;;5094012;28;20210;-44
2021/01/22 07:23:58;;;;;;;3.63;3.22;;;7.90;98.00;;;;;;5093763;28;20687;-48
2021/01/22 07:26:35;;;;;;;3.22;2.50;;;7.80;98.00;;;;;;5094030;28;20202;-48
2021/01/22 07:29:23;;;;;;;6.22;5.20;;;7.80;98.00;;;;;;5093744;28;20252;-46
2021/01/22 07:31:56;;;;;;;9.73;7.90;;;7.70;98.10;;;;;;5094028;28;20214;-46
2021/01/22 07:34:46;;;;;;;2.65;2.45;;;7.60;98.20;;;;;;5093699;28;20227;-47
2021/01/22 07:37:19;;;;;;;3.45;2.60;;;7.50;98.20;;;;;;5094084;28;20293;-49
2021/01/22 07:39:48;;;;;;;3.22;1.70;;;7.50;98.30;;;;;;5093643;28;20253;-45
2021/01/22 07:42:17;;;;;;;4.45;3.72;;;7.50;98.30;;;;;;5093500;28;20268;-49
2021/01/22 07:44:46;;;;;;;6.03;3.97;;;7.50;98.30;;;;;;5093618;28;20670;-47
2021/01/22 07:47:25;;;;;;;5.63;2.58;;;7.50;98.30;;;;;;5093205;28;20309;-49
2021/01/22 07:49:56;;;;;;;6.35;5.82;;;7.60;98.20;;;;;;5093436;28;20209;-47
2021/01/22 07:52:24;;;;;;;2.22;2.00;;;7.60;98.10;;;;;;5093448;28;20744;-47
2021/01/22 07:54:52;;;;;;;3.80;3.20;;;7.60;98.00;;;;;;5093475;28;20663;-48
2021/01/22 07:57:20;;;;;;;3.00;1.90;;;7.70;98.00;;;;;;5093517;28;20291;-46
2021/01/22 07:59:48;;;;;;;3.67;2.03;;;7.60;98.00;;;;;;5093529;28;20206;-47
2021/01/22 08:02:17;;;;;;;2.47;1.67;;;7.70;98.00;;;;;;5093555;28;20267;-45
2021/01/22 08:04:47;;;;;;;7.25;6.40;;;7.70;98.00;;;;;;5093144;28;20287;-47
2021/01/22 08:07:17;;;;;;;2.63;2.28;;;7.70;98.00;;;;;;5093142;28;20207;-51
2021/01/22 08:09:53;;;;;;;3.42;2.22;;;7.70;98.00;;;;;;5092942;28;20301;-46
2021/01/22 08:12:21;;;;;;;5.63;4.15;;;7.80;97.90;;;;;;5093075;28;20289;-45
2021/01/22 08:14:48;;;;;;;10.55;7.72;;;7.90;97.80;;;;;;5092914;28;20223;-46
2021/01/22 08:17:15;;;;;;;21.52;15.10;;;8.00;97.60;;;;;;5093170;28;20239;-44
2021/01/22 08:19:42;;;;;;;17.75;10.63;;;8.00;97.50;;;;;;5093110;28;20210;-45
2021/01/22 08:22:14;;;;;;;3.58;2.50;;;8.10;97.50;;;;;;5093167;28;20641;-49
2021/01/22 08:24:45;;;;;;;9.68;6.30;;;8.20;97.30;;;;;;5092965;28;20234;-46
2021/01/22 08:27:14;;;;;;;2.45;1.98;;;8.20;97.20;;;;;;5093069;28;20629;-47
2021/01/22 08:29:43;;;;;;;4.20;3.00;;;8.30;97.20;;;;;;5093050;28;20206;-48
2021/01/22 08:32:11;;;;;;;38.25;22.02;;;8.40;97.00;;;;;;5092974;28;20314;-46
2021/01/22 08:34:39;;;;;;;13.70;8.35;;;8.40;96.80;;;;;;5092777;28;20226;-46
2021/01/22 08:37:08;;;;;;;12.40;5.88;;;8.50;96.80;;;;;;5092680;28;20221;-47
2021/01/22 08:39:58;;;;;;;14.32;7.97;;;8.50;96.70;;;;;;5092715;28;20211;-46
2021/01/22 08:42:27;;;;;;;11.55;7.65;;;8.50;96.60;;;;;;5092738;28;20214;-46
2021/01/22 08:44:59;;;;;;;4.85;3.78;;;8.50;96.70;;;;;;5092490;28;20239;-47
2021/01/22 08:47:30;;;;;;;2.83;1.88;;;8.50;96.70;;;;;;5092533;28;20218;-50
2021/01/22 08:49:59;;;;;;;2.70;2.50;;;8.60;96.50;;;;;;5092659;28;20264;-48
2021/01/22 08:52:28;;;;;;;2.15;1.80;;;8.60;96.50;;;;;;5092589;28;20233;-51
2021/01/22 08:54:57;;;;;;;1.90;1.70;;;8.70;96.70;;;;;;5092179;28;20317;-48
2021/01/22 08:57:26;;;;;;;3.92;2.85;;;8.80;96.30;;;;;;5091910;28;20236;-46
2021/01/22 08:59:54;;;;;;;2.70;2.15;;;8.90;96.10;;;;;;5092218;28;20240;-45
2021/01/22 09:02:38;;;;;;;2.38;1.48;;;9.00;95.90;;;;;;5091971;28;20615;-45
2021/01/22 09:05:08;;;;;;;3.00;2.00;;;9.10;95.60;;;;;;5092041;28;20574;-48
2021/01/22 09:07:35;;;;;;;2.42;1.98;;;9.30;95.40;;;;;;5092255;28;20218;-45
2021/01/22 09:10:04;;;;;;;1.23;1.13;;;9.50;95.10;;;;;;5092176;28;20203;-49
2021/01/22 09:12:33;;;;;;;1.55;1.00;;;9.60;94.70;;;;;;5092157;28;20294;-48
2021/01/22 09:15:03;;;;;;;3.30;0.82;;;9.80;94.30;;;;;;5091973;28;20633;-48
2021/01/22 09:17:41;;;;;;;1.58;1.38;;;10.10;93.90;;;;;;5090840;28;20317;-44
2021/01/22 09:20:14;;;;;;;0.95;0.77;;;10.20;93.80;;;;;;5089487;28;20202;-51
2021/01/22 09:22:42;;;;;;;0.80;0.77;;;10.40;93.30;;;;;;5071855;28;20234;-46
2021/01/22 09:25:11;;;;;;;2.47;2.05;;;10.60;92.90;;;;;;5071120;28;20206;-49
2021/01/22 09:27:40;;;;;;;1.33;1.00;;;10.70;92.60;;;;;;5071521;28;20211;-48
2021/01/22 09:30:10;;;;;;;1.63;0.95;;;10.90;92.30;;;;;;5071734;28;20337;-47
2021/01/22 09:32:38;;;;;;;3.88;1.55;;;11.00;91.90;;;;;;5071205;28;20222;-48
2021/01/22 09:35:07;;;;;;;5.03;2.65;;;11.20;91.70;;;;;;5071418;28;20231;-50
2021/01/22 09:37:34;;;;;;;2.35;1.40;;;11.20;91.40;;;;;;5071866;28;20276;-46
2021/01/22 09:40:02;;;;;;;3.45;2.72;;;11.30;91.10;;;;;;5072104;28;20238;-48
2021/01/22 09:42:29;;;;;;;1.35;1.02;;;11.40;91.10;;;;;;5071500;28;20615;-48
2021/01/22 09:44:57;;;;;;;1.10;1.00;;;11.60;90.90;;;;;;5071497;28;20231;-50
2021/01/22 09:47:23;;;;;;;2.40;1.55;;;11.60;90.60;;;;;;5071714;28;20462;-50
2021/01/22 09:49:51;;;;;;;3.13;1.17;;;11.70;90.60;;;;;;5071338;28;20214;-48
2021/01/22 09:52:18;;;;;;;3.42;2.90;;;11.70;90.40;;;;;;5071918;28;20257;-46
2021/01/22 09:54:46;;;;;;;3.55;1.25;;;11.80;90.20;;;;;;5071512;28;20321;-48
2021/01/22 09:57:13;;;;;;;4.03;2.33;;;11.80;90.20;;;;;;5071485;28;20231;-48
2021/01/22 09:59:40;;;;;;;3.35;1.80;;;11.80;90.20;;;;;;5071689;28;20422;-47
2021/01/22 10:02:10;;;;;;;6.30;3.03;;;11.80;90.00;;;;;;5071418;28;20219;-45
2021/01/22 10:04:37;;;;;;;6.88;3.95;;;11.80;90.10;;;;;;5071388;28;20282;-46
2021/01/22 10:07:04;;;;;;;7.68;3.60;;;11.80;90.00;;;;;;5071599;28;20710;-46
2021/01/22 10:09:32;;;;;;;3.25;1.40;;;11.80;90.00;;;;;;5071556;28;20661;-48
2021/01/22 10:11:59;;;;;;;6.38;3.40;;;11.80;89.90;;;;;;5071612;28;20294;-47
2021/01/22 10:14:26;;;;;;;5.47;3.25;;;11.90;89.90;;;;;;5071214;28;20326;-49
2021/01/22 10:16:53;;;;;;;22.77;11.50;;;11.90;89.70;;;;;;5071345;28;20211;-46
2021/01/22 10:19:21;;;;;;;6.78;2.75;;;12.00;89.60;;;;;;5071450;28;20207;-44
2021/01/22 10:21:48;;;;;;;2.97;1.80;;;12.00;89.10;;;;;;5071460;28;20673;-50
2021/01/22 10:24:16;;;;;;;1.50;1.40;;;12.10;89.00;;;;;;5071402;28;20268;-45
2021/01/22 10:26:45;;;;;;;5.28;1.63;;;12.20;88.60;;;;;;5071244;28;20257;-49
2021/01/22 10:29:12;;;;;;;1.88;1.67;;;12.30;88.30;;;;;;5071074;28;20239;-45
2021/01/22 10:31:39;;;;;;;4.65;2.08;;;12.20;87.90;;;;;;5071062;28;20229;-47
2021/01/22 10:34:06;;;;;;;1.63;1.40;;;12.20;88.00;;;;;;5070946;28;20272;-50
2021/01/22 10:36:34;;;;;;;2.30;2.00;;;12.20;87.70;;;;;;5070964;28;20310;-47
2021/01/22 10:39:02;;;;;;;4.15;1.80;;;12.10;87.70;;;;;;5074694;28;20226;-48
2021/01/22 10:41:29;;;;;;;3.45;2.50;;;12.10;87.40;;;;;;5074786;28;20243;-50
2021/01/22 10:43:56;;;;;;;2.30;2.10;;;12.00;87.70;;;;;;5074603;28;20298;-49
2021/01/22 10:46:23;;;;;;;3.88;3.08;;;11.90;87.50;;;;;;5074507;28;20207;-46
2021/01/22 10:48:50;;;;;;;3.17;2.30;;;11.90;87.70;;;;;;5074638;28;20207;-48
2021/01/22 10:51:18;;;;;;;4.88;2.25;;;12.00;87.70;;;;;;5074564;28;20304;-50
2021/01/22 10:53:46;;;;;;;2.53;2.00;;;12.00;87.60;;;;;;5074523;28;20463;-47
2021/01/22 10:56:13;;;;;;;3.15;2.47;;;12.10;88.20;;;;;;5074361;28;20662;-47
2021/01/22 10:58:40;;;;;;;4.22;2.15;;;12.10;87.30;;;;;;5074239;28;20203;-45
2021/01/22 11:01:07;;;;;;;2.90;1.67;;;12.10;87.00;;;;;;5074333;28;20674;-46
2021/01/22 11:03:35;;;;;;;2.42;1.38;;;12.20;86.70;;;;;;5074293;28;20322;-48
2021/01/22 11:06:02;;;;;;;1.65;1.55;;;12.30;86.30;;;;;;5074154;28;20286;-52
2021/01/22 11:08:29;;;;;;;2.75;1.70;;;12.30;86.30;;;;;;5074279;28;20651;-47
2021/01/22 11:10:57;;;;;;;1.83;1.73;;;12.40;85.90;;;;;;5074055;28;20203;-52
2021/01/22 11:13:24;;;;;;;3.22;2.55;;;12.40;85.70;;;;;;5073921;28;20701;-50
2021/01/22 11:15:51;;;;;;;2.20;2.00;;;12.40;85.50;;;;;;5073807;28;20227;-49
2021/01/22 11:18:18;;;;;;;6.15;1.85;;;12.50;85.20;;;;;;5073941;28;20295;-51
2021/01/22 11:20:45;;;;;;;3.03;2.30;;;12.50;84.80;;;;;;5073990;28;20296;-49
2021/01/22 11:23:12;;;;;;;3.90;2.10;;;12.50;85.00;;;;;;5073933;28;20298;-49
2021/01/22 11:25:39;;;;;;;5.45;1.77;;;12.50;85.10;;;;;;5073844;28;20290;-49
2021/01/22 11:28:07;;;;;;;3.92;1.67;;;12.60;84.80;;;;;;5073780;28;20674;-48
2021/01/22 11:30:34;;;;;;;2.53;1.60;;;12.70;84.60;;;;;;5073853;28;20505;-50
2021/01/22 11:33:02;;;;;;;1.65;1.50;;;12.80;84.10;;;;;;5073674;28;20302;-51
2021/01/22 11:35:33;;;;;;;2.45;2.10;;;12.80;83.90;;;;;;5073476;28;20219;-52
2021/01/22 11:38:00;;;;;;;2.72;2.00;;;12.90;83.70;;;;;;5073717;28;20211;-47
2021/01/22 11:40:28;;;;;;;3.08;1.90;;;12.90;83.30;;;;;;5073739;28;20212;-49
2021/01/22 11:42:55;;;;;;;2.45;1.90;;;13.00;83.10;;;;;;5073475;28;20764;-47
2021/01/22 11:45:23;;;;;;;3.15;2.45;;;13.00;82.90;;;;;;5073623;28;20207;-49
2021/01/22 11:47:50;;;;;;;6.55;1.60;;;13.10;82.70;;;;;;5073096;28;20295;-50
2021/01/22 11:50:17;;;;;;;1.60;1.23;;;13.20;82.30;;;;;;5073069;28;20233;-54
2021/01/22 11:52:44;;;;;;;3.55;3.13;;;13.30;81.80;;;;;;5073360;28;20212;-50
2021/01/22 11:55:12;;;;;;;1.88;1.77;;;13.40;81.40;;;;;;5073268;28;20261;-48
2021/01/22 11:57:39;;;;;;;1.70;1.58;;;13.50;81.10;;;;;;5073149;28;20298;-51
2021/01/22 12:00:07;;;;;;;2.67;1.10;;;13.60;80.50;;;;;;5073187;28;20677;-52
2021/01/22 12:02:35;;;;;;;1.60;1.20;;;13.70;80.20;;;;;;5072947;28;20250;-47
2021/01/22 12:05:02;;;;;;;1.85;1.50;;;13.60;79.70;;;;;;5073067;28;20286;-53
2021/01/22 12:07:29;;;;;;;2.25;1.35;;;13.60;79.50;;;;;;5073028;28;20666;-52
2021/01/22 12:09:56;;;;;;;3.20;1.05;;;13.70;79.30;;;;;;5072933;28;20617;-51
2021/01/22 12:12:23;;;;;;;1.50;1.13;;;13.70;79.00;;;;;;5072621;28;20674;-49
2021/01/22 12:14:51;;;;;;;2.40;1.50;;;13.70;79.00;;;;;;5072797;28;20585;-50
2021/01/22 12:17:18;;;;;;;2.50;1.50;;;13.60;78.80;;;;;;5072738;28;20254;-49
2021/01/22 12:19:46;;;;;;;2.33;1.42;;;13.60;79.00;;;;;;5072644;28;20215;-47
2021/01/22 12:22:13;;;;;;;1.98;0.90;;;13.60;79.00;;;;;;5072915;28;20298;-48
2021/01/22 12:24:40;;;;;;;2.60;1.38;;;13.50;78.70;;;;;;5072679;28;20203;-47
2021/01/22 12:27:07;;;;;;;1.48;0.85;;;13.60;78.60;;;;;;5072694;28;20218;-53
2021/01/22 12:29:34;;;;;;;1.98;1.48;;;13.60;78.50;;;;;;5072612;28;20265;-50
2021/01/22 12:32:02;;;;;;;1.77;1.58;;;13.40;78.50;;;;;;5072833;28;20678;-49
2021/01/22 12:34:31;;;;;;;1.45;1.20;;;13.30;78.60;;;;;;5072415;28;20211;-49
2021/01/22 12:36:59;;;;;;;2.83;1.30;;;13.30;79.60;;;;;;5072687;28;20637;-47
2021/01/22 12:39:25;;;;;;;3.45;2.80;;;13.30;78.90;;;;;;5072665;28;20230;-48
2021/01/22 12:41:52;;;;;;;2.85;1.80;;;13.20;78.90;;;;;;5072327;28;20223;-48
2021/01/22 12:44:19;;;;;;;1.70;1.05;;;13.20;78.90;;;;;;5072254;28;20250;-50
2021/01/22 12:46:47;;;;;;;2.17;1.27;;;13.20;78.90;;;;;;5072101;28;20207;-53
2021/01/22 12:49:14;;;;;;;2.03;1.50;;;13.20;78.90;;;;;;5072296;28;20215;-49
2021/01/22 12:51:41;;;;;;;1.10;0.90;;;13.10;78.90;;;;;;5072033;28;20242;-51
2021/01/22 12:54:09;;;;;;;2.25;1.20;;;13.10;79.00;;;;;;5072281;28;20211;-49
2021/01/22 12:56:36;;;;;;;3.13;1.67;;;13.00;79.00;;;;;;5072154;28;20321;-50
2021/01/22 12:59:03;;;;;;;3.28;1.73;;;13.00;79.10;;;;;;5072063;28;20303;-49
2021/01/22 13:01:30;;;;;;;2.67;1.70;;;13.10;79.90;;;;;;5071409;28;20211;-49
2021/01/22 13:03:57;;;;;;;2.83;1.73;;;13.10;79.10;;;;;;5072324;28;20287;-50